sensor_id;sensor_type;location;lat;lon;timestamp;P1;durP1;ratioP1;P2;durP2;ratioP2
18893;SDS011;9579;49.488;8.226;2023-04-16T01:41:04;12.23;;;11.23;;
18893;SDS011;9579;49.488;8.226;2023-04-16T01:43:51;12.77;;;11.77;;
18893;SDS011;9579;49.488;8.226;2023-04-16T01:46:38;12.33;;;11.33;;
18893;SDS011;9579;49.488;8.226;2023-04-16T01:49:25;12.73;;;11.63;;
18893;SDS011;9579;49.488;8.226;2023-04-16T01:52:15;12.37;;;11.43;;
18893;SDS011;9579;49.488;8.226;2023-04-16T01:55:02;13.00;;;11.90;;
18893;SDS011;9579;49.488;8.226;2023-04-16T01:57:50;12.07;;;11.17;;
18893;SDS011;9579;49.488;8.226;2023-04-16T02:00:37;13.47;;;12.37;;
18893;SDS011;9579;49.488;8.226;2023-04-16T02:03:26;14.47;;;13.27;;
18893;SDS011;9579;49.488;8.226;2023-04-16T02:06:13;13.73;;;12.63;;
18893;SDS011;9579;49.488;8.226;2023-04-16T02:09:00;13.20;;;12.07;;
18893;SDS011;9579;49.488;8.226;2023-04-16T02:11:48;12.80;;;11.80;;
18893;SDS011;9579;49.488;8.226;2023-04-16T02:14:36;13.93;;;12.73;;
18893;SDS011;9579;49.488;8.226;2023-04-16T02:17:23;13.47;;;12.37;;
18893;SDS011;9579;49.488;8.226;2023-04-16T02:20:10;14.27;;;13.07;;
18893;SDS011;9579;49.488;8.226;2023-04-16T02:22:57;14.70;;;13.50;;
18893;SDS011;9579;49.488;8.226;2023-04-16T02:25:45;15.23;;;14.03;;
18893;SDS011;9579;49.488;8.226;2023-04-16T02:28:32;14.63;;;13.43;;
18893;SDS011;9579;49.488;8.226;2023-04-16T02:31:21;14.40;;;13.20;;
18893;SDS011;9579;49.488;8.226;2023-04-16T02:34:08;16.03;;;14.73;;
18893;SDS011;9579;49.488;8.226;2023-04-16T02:36:55;16.13;;;14.73;;
18893;SDS011;9579;49.488;8.226;2023-04-16T02:39:42;14.77;;;13.57;;
18893;SDS011;9579;49.488;8.226;2023-04-16T02:42:30;15.83;;;14.53;;
18893;SDS011;9579;49.488;8.226;2023-04-16T02:45:17;15.47;;;14.17;;
18893;SDS011;9579;49.488;8.226;2023-04-16T02:48:06;15.50;;;14.20;;
18893;SDS011;9579;49.488;8.226;2023-04-16T02:50:54;15.50;;;14.20;;
18893;SDS011;9579;49.488;8.226;2023-04-16T02:53:41;16.57;;;15.17;;
18893;SDS011;9579;49.488;8.226;2023-04-16T02:56:30;15.30;;;14.00;;
18893;SDS011;9579;49.488;8.226;2023-04-16T02:59:17;15.10;;;13.90;;
18893;SDS011;9579;49.488;8.226;2023-04-16T03:02:04;14.87;;;13.60;;
18893;SDS011;9579;49.488;8.226;2023-04-16T03:04:52;15.37;;;14.07;;
18893;SDS011;9579;49.488;8.226;2023-04-16T03:07:39;14.90;;;13.70;;
18893;SDS011;9579;49.488;8.226;2023-04-16T03:10:26;15.30;;;14.10;;
18893;SDS011;9579;49.488;8.226;2023-04-16T03:13:13;14.87;;;13.67;;
18893;SDS011;9579;49.488;8.226;2023-04-16T03:16:01;15.40;;;14.17;;
18893;SDS011;9579;49.488;8.226;2023-04-16T03:18:48;15.17;;;13.87;;
18893;SDS011;9579;49.488;8.226;2023-04-16T03:21:36;15.60;;;14.30;;
18893;SDS011;9579;49.488;8.226;2023-04-16T03:24:23;15.10;;;13.80;;
18893;SDS011;9579;49.488;8.226;2023-04-16T03:27:10;15.47;;;14.17;;
18893;SDS011;9579;49.488;8.226;2023-04-16T03:29:57;15.57;;;14.27;;
18893;SDS011;9579;49.488;8.226;2023-04-16T03:32:45;15.87;;;14.47;;
18893;SDS011;9579;49.488;8.226;2023-04-16T03:35:32;15.37;;;14.07;;
18893;SDS011;9579;49.488;8.226;2023-04-16T03:38:20;15.17;;;13.87;;
18893;SDS011;9579;49.488;8.226;2023-04-16T03:41:07;16.67;;;15.17;;
18893;SDS011;9579;49.488;8.226;2023-04-16T03:43:54;16.60;;;15.20;;
18893;SDS011;9579;49.488;8.226;2023-04-16T03:46:41;15.53;;;14.23;;
18893;SDS011;9579;49.488;8.226;2023-04-16T03:49:28;17.07;;;15.63;;
18893;SDS011;9579;49.488;8.226;2023-04-16T03:52:15;16.53;;;15.13;;
18893;SDS011;9579;49.488;8.226;2023-04-16T03:55:04;16.23;;;14.83;;
18893;SDS011;9579;49.488;8.226;2023-04-16T03:57:52;16.53;;;15.03;;
18893;SDS011;9579;49.488;8.226;2023-04-16T04:00:40;16.30;;;14.80;;
18893;SDS011;9579;49.488;8.226;2023-04-16T04:03:27;15.97;;;14.57;;
18893;SDS011;9579;49.488;8.226;2023-04-16T04:06:14;16.03;;;14.57;;
18893;SDS011;9579;49.488;8.226;2023-04-16T04:09:01;16.43;;;14.87;;
18893;SDS011;9579;49.488;8.226;2023-04-16T04:11:50;16.27;;;14.87;;
18893;SDS011;9579;49.488;8.226;2023-04-16T04:14:37;14.80;;;13.50;;
18893;SDS011;9579;49.488;8.226;2023-04-16T04:17:24;15.67;;;14.27;;
18893;SDS011;9579;49.488;8.226;2023-04-16T04:20:11;17.30;;;15.70;;
18893;SDS011;9579;49.488;8.226;2023-04-16T04:22:58;15.30;;;13.90;;
18893;SDS011;9579;49.488;8.226;2023-04-16T04:25:45;15.30;;;13.87;;
18893;SDS011;9579;49.488;8.226;2023-04-16T04:28:34;14.70;;;13.40;;
18893;SDS011;9579;49.488;8.226;2023-04-16T04:31:21;14.70;;;13.43;;
18893;SDS011;9579;49.488;8.226;2023-04-16T04:34:08;15.27;;;13.87;;
18893;SDS011;9579;49.488;8.226;2023-04-16T04:36:55;13.97;;;12.77;;
18893;SDS011;9579;49.488;8.226;2023-04-16T04:39:42;14.07;;;12.83;;
18893;SDS011;9579;49.488;8.226;2023-04-16T04:42:29;13.57;;;12.30;;
18893;SDS011;9579;49.488;8.226;2023-04-16T04:45:18;12.97;;;11.83;;
18893;SDS011;9579;49.488;8.226;2023-04-16T04:48:05;13.43;;;12.23;;
18893;SDS011;9579;49.488;8.226;2023-04-16T04:50:52;13.30;;;12.10;;
18893;SDS011;9579;49.488;8.226;2023-04-16T04:53:39;13.63;;;12.43;;
18893;SDS011;9579;49.488;8.226;2023-04-16T04:56:26;12.77;;;11.67;;
18893;SDS011;9579;49.488;8.226;2023-04-16T04:59:13;12.57;;;11.47;;
18893;SDS011;9579;49.488;8.226;2023-04-16T05:02:02;11.90;;;10.80;;
18893;SDS011;9579;49.488;8.226;2023-04-16T05:04:49;12.43;;;11.23;;
18893;SDS011;9579;49.488;8.226;2023-04-16T05:07:36;11.93;;;10.83;;
18893;SDS011;9579;49.488;8.226;2023-04-16T05:10:23;11.97;;;10.87;;
18893;SDS011;9579;49.488;8.226;2023-04-16T05:13:10;11.97;;;10.97;;
18893;SDS011;9579;49.488;8.226;2023-04-16T05:15:57;11.93;;;10.93;;
18893;SDS011;9579;49.488;8.226;2023-04-16T05:18:46;11.47;;;10.47;;
18893;SDS011;9579;49.488;8.226;2023-04-16T05:21:34;12.40;;;11.30;;
18893;SDS011;9579;49.488;8.226;2023-04-16T05:24:21;12.07;;;11.00;;
18893;SDS011;9579;49.488;8.226;2023-04-16T05:27:10;11.97;;;10.97;;
18893;SDS011;9579;49.488;8.226;2023-04-16T05:29:57;11.73;;;10.63;;
18893;SDS011;9579;49.488;8.226;2023-04-16T05:32:44;13.13;;;11.90;;
18893;SDS011;9579;49.488;8.226;2023-04-16T05:35:32;14.13;;;12.73;;
18893;SDS011;9579;49.488;8.226;2023-04-16T05:38:19;12.30;;;11.30;;
18893;SDS011;9579;49.488;8.226;2023-04-16T05:41:06;12.23;;;11.23;;
18893;SDS011;9579;49.488;8.226;2023-04-16T05:43:55;12.97;;;11.77;;
18893;SDS011;9579;49.488;8.226;2023-04-16T05:46:42;11.53;;;10.53;;
18893;SDS011;9579;49.488;8.226;2023-04-16T05:49:29;12.27;;;11.07;;
18893;SDS011;9579;49.488;8.226;2023-04-16T05:52:18;11.57;;;10.57;;
18893;SDS011;9579;49.488;8.226;2023-04-16T05:55:05;11.80;;;10.80;;
18893;SDS011;9579;49.488;8.226;2023-04-16T05:57:52;12.13;;;11.03;;
18893;SDS011;9579;49.488;8.226;2023-04-16T06:00:39;11.50;;;10.50;;
18893;SDS011;9579;49.488;8.226;2023-04-16T06:03:26;12.63;;;11.43;;
18893;SDS011;9579;49.488;8.226;2023-04-16T06:06:13;12.07;;;10.97;;
18893;SDS011;9579;49.488;8.226;2023-04-16T06:09:02;11.37;;;10.33;;
18893;SDS011;9579;49.488;8.226;2023-04-16T06:11:49;11.23;;;10.23;;
18893;SDS011;9579;49.488;8.226;2023-04-16T06:14:36;11.83;;;10.73;;
18893;SDS011;9579;49.488;8.226;2023-04-16T06:17:23;12.53;;;11.43;;
18893;SDS011;9579;49.488;8.226;2023-04-16T06:20:11;11.50;;;10.50;;
18893;SDS011;9579;49.488;8.226;2023-04-16T06:22:59;10.50;;;9.60;;
18893;SDS011;9579;49.488;8.226;2023-04-16T06:25:48;11.60;;;10.50;;
18893;SDS011;9579;49.488;8.226;2023-04-16T06:28:35;10.73;;;9.73;;
18893;SDS011;9579;49.488;8.226;2023-04-16T06:31:22;10.70;;;9.70;;
18893;SDS011;9579;49.488;8.226;2023-04-16T06:34:11;10.73;;;9.73;;
18893;SDS011;9579;49.488;8.226;2023-04-16T06:36:58;10.90;;;9.90;;
18893;SDS011;9579;49.488;8.226;2023-04-16T06:39:47;10.60;;;9.60;;
18893;SDS011;9579;49.488;8.226;2023-04-16T06:42:35;10.53;;;9.63;;
18893;SDS011;9579;49.488;8.226;2023-04-16T06:45:22;10.70;;;9.70;;
18893;SDS011;9579;49.488;8.226;2023-04-16T06:48:10;11.20;;;10.20;;
18893;SDS011;9579;49.488;8.226;2023-04-16T06:50:57;11.33;;;10.33;;
18893;SDS011;9579;49.488;8.226;2023-04-16T06:53:44;11.60;;;10.60;;
18893;SDS011;9579;49.488;8.226;2023-04-16T06:56:31;11.00;;;10.10;;
18893;SDS011;9579;49.488;8.226;2023-04-16T06:59:19;11.53;;;10.37;;
18893;SDS011;9579;49.488;8.226;2023-04-16T07:02:06;11.27;;;10.27;;
18893;SDS011;9579;49.488;8.226;2023-04-16T07:04:55;12.13;;;11.03;;
18893;SDS011;9579;49.488;8.226;2023-04-16T07:07:43;11.73;;;10.70;;
18893;SDS011;9579;49.488;8.226;2023-04-16T07:10:30;11.20;;;10.20;;
18893;SDS011;9579;49.488;8.226;2023-04-16T07:13:17;12.07;;;10.93;;
18893;SDS011;9579;49.488;8.226;2023-04-16T07:16:08;11.93;;;10.83;;
18893;SDS011;9579;49.488;8.226;2023-04-16T07:18:55;12.60;;;11.40;;
18893;SDS011;9579;49.488;8.226;2023-04-16T07:21:42;13.20;;;11.93;;
18893;SDS011;9579;49.488;8.226;2023-04-16T07:24:30;13.37;;;12.07;;
18893;SDS011;9579;49.488;8.226;2023-04-16T07:27:17;13.20;;;12.00;;
18893;SDS011;9579;49.488;8.226;2023-04-16T07:30:05;14.07;;;12.77;;
18893;SDS011;9579;49.488;8.226;2023-04-16T07:32:55;13.33;;;12.10;;
18893;SDS011;9579;49.488;8.226;2023-04-16T07:35:42;13.50;;;12.20;;
18893;SDS011;9579;49.488;8.226;2023-04-16T07:38:32;12.97;;;11.77;;
18893;SDS011;9579;49.488;8.226;2023-04-16T07:41:19;11.67;;;10.50;;
18893;SDS011;9579;49.488;8.226;2023-04-16T13:46:07;20.63;;;18.67;;
18893;SDS011;9579;49.488;8.226;2023-04-16T13:48:54;21.47;;;19.37;;
18893;SDS011;9579;49.488;8.226;2023-04-16T13:51:42;22.33;;;20.17;;
18893;SDS011;9579;49.488;8.226;2023-04-16T13:54:29;22.10;;;20.00;;
18893;SDS011;9579;49.488;8.226;2023-04-16T13:57:16;22.30;;;20.10;;
18893;SDS011;9579;49.488;8.226;2023-04-16T14:00:04;23.03;;;20.87;;
18893;SDS011;9579;49.488;8.226;2023-04-16T14:02:55;21.67;;;19.67;;
18893;SDS011;9579;49.488;8.226;2023-04-16T14:05:42;23.80;;;21.50;;
18893;SDS011;9579;49.488;8.226;2023-04-16T14:08:29;22.77;;;20.63;;
18893;SDS011;9579;49.488;8.226;2023-04-16T14:11:16;24.23;;;21.93;;
18893;SDS011;9579;49.488;8.226;2023-04-16T14:14:03;22.73;;;20.63;;
18893;SDS011;9579;49.488;8.226;2023-04-16T14:16:51;23.87;;;21.57;;
18893;SDS011;9579;49.488;8.226;2023-04-16T14:19:41;23.00;;;20.80;;
18893;SDS011;9579;49.488;8.226;2023-04-16T14:22:28;23.67;;;21.47;;
18893;SDS011;9579;49.488;8.226;2023-04-16T14:25:15;25.03;;;22.53;;
18893;SDS011;9579;49.488;8.226;2023-04-16T14:28:02;24.73;;;22.33;;
18893;SDS011;9579;49.488;8.226;2023-04-16T14:30:49;24.30;;;22.00;;
18893;SDS011;9579;49.488;8.226;2023-04-16T14:33:36;23.90;;;21.50;;
18893;SDS011;9579;49.488;8.226;2023-04-16T14:36:25;24.27;;;21.97;;
18893;SDS011;9579;49.488;8.226;2023-04-16T14:39:12;23.10;;;20.90;;
18893;SDS011;9579;49.488;8.226;2023-04-16T14:41:59;23.50;;;21.40;;
18893;SDS011;9579;49.488;8.226;2023-04-16T14:44:47;23.87;;;21.57;;
18893;SDS011;9579;49.488;8.226;2023-04-16T14:47:34;23.27;;;21.07;;
18893;SDS011;9579;49.488;8.226;2023-04-16T14:50:21;23.47;;;21.27;;
18893;SDS011;9579;49.488;8.226;2023-04-16T14:53:10;23.63;;;21.43;;
18893;SDS011;9579;49.488;8.226;2023-04-16T14:55:58;22.20;;;20.10;;
18893;SDS011;9579;49.488;8.226;2023-04-16T14:58:45;22.53;;;20.53;;
18893;SDS011;9579;49.488;8.226;2023-04-16T15:01:32;21.50;;;19.60;;
18893;SDS011;9579;49.488;8.226;2023-04-16T15:04:20;21.57;;;19.57;;
18893;SDS011;9579;49.488;8.226;2023-04-16T15:07:07;21.07;;;19.07;;
18893;SDS011;9579;49.488;8.226;2023-04-16T15:09:56;21.63;;;19.63;;
18893;SDS011;9579;49.488;8.226;2023-04-16T15:12:43;21.40;;;19.40;;
18893;SDS011;9579;49.488;8.226;2023-04-16T15:15:30;21.40;;;19.23;;
18893;SDS011;9579;49.488;8.226;2023-04-16T15:18:17;21.33;;;19.43;;
18893;SDS011;9579;49.488;8.226;2023-04-16T15:21:04;21.40;;;19.43;;
18893;SDS011;9579;49.488;8.226;2023-04-16T15:23:51;19.63;;;17.93;;
18893;SDS011;9579;49.488;8.226;2023-04-16T15:26:39;19.33;;;17.37;;
18893;SDS011;9579;49.488;8.226;2023-04-16T15:29:27;19.43;;;17.67;;
18893;SDS011;9579;49.488;8.226;2023-04-16T15:32:14;19.67;;;17.87;;
18893;SDS011;9579;49.488;8.226;2023-04-16T15:35:01;18.50;;;16.83;;
18893;SDS011;9579;49.488;8.226;2023-04-16T15:37:49;18.97;;;17.20;;
18893;SDS011;9579;49.488;8.226;2023-04-16T15:40:37;19.10;;;17.40;;
18893;SDS011;9579;49.488;8.226;2023-04-16T15:43:26;19.63;;;17.87;;
18893;SDS011;9579;49.488;8.226;2023-04-16T15:46:14;20.10;;;18.20;;
18893;SDS011;9579;49.488;8.226;2023-04-16T15:49:01;19.57;;;17.77;;
18893;SDS011;9579;49.488;8.226;2023-04-16T15:51:48;19.20;;;17.40;;
18893;SDS011;9579;49.488;8.226;2023-04-16T15:54:35;18.30;;;16.70;;
18893;SDS011;9579;49.488;8.226;2023-04-16T15:57:22;18.90;;;17.10;;
18893;SDS011;9579;49.488;8.226;2023-04-16T16:00:11;17.83;;;16.33;;
18893;SDS011;9579;49.488;8.226;2023-04-16T16:03:01;18.43;;;16.83;;
18893;SDS011;9579;49.488;8.226;2023-04-16T16:05:48;17.97;;;16.17;;
18893;SDS011;9579;49.488;8.226;2023-04-16T16:08:36;17.10;;;15.50;;
18893;SDS011;9579;49.488;8.226;2023-04-16T16:11:23;18.13;;;16.43;;
18893;SDS011;9579;49.488;8.226;2023-04-16T16:14:10;17.10;;;15.60;;
18893;SDS011;9579;49.488;8.226;2023-04-16T16:16:59;16.87;;;15.37;;
18893;SDS011;9579;49.488;8.226;2023-04-16T16:19:46;16.73;;;15.20;;
18893;SDS011;9579;49.488;8.226;2023-04-16T16:22:35;16.03;;;14.57;;
18893;SDS011;9579;49.488;8.226;2023-04-16T16:25:23;16.37;;;14.97;;
18893;SDS011;9579;49.488;8.226;2023-04-16T16:28:10;16.70;;;15.10;;
18893;SDS011;9579;49.488;8.226;2023-04-16T16:30:57;16.00;;;14.60;;
18893;SDS011;9579;49.488;8.226;2023-04-16T16:33:47;17.03;;;15.47;;
18893;SDS011;9579;49.488;8.226;2023-04-16T16:36:34;16.03;;;14.63;;
18893;SDS011;9579;49.488;8.226;2023-04-16T16:39:22;17.27;;;15.67;;
18893;SDS011;9579;49.488;8.226;2023-04-16T16:42:09;17.33;;;15.73;;
18893;SDS011;9579;49.488;8.226;2023-04-16T16:44:56;16.20;;;14.57;;
18893;SDS011;9579;49.488;8.226;2023-04-16T16:47:43;15.77;;;14.30;;
18893;SDS011;9579;49.488;8.226;2023-04-16T16:50:32;15.77;;;14.38;;
18893;SDS011;9579;49.488;8.226;2023-04-16T16:53:19;14.93;;;13.68;;
18893;SDS011;9579;49.488;8.226;2023-04-16T16:56:06;15.35;;;14.05;;
18893;SDS011;9579;49.488;8.226;2023-04-16T16:58:53;15.00;;;13.68;;
18893;SDS011;9579;49.488;8.226;2023-04-16T17:01:40;15.75;;;14.35;;
18893;SDS011;9579;49.488;8.226;2023-04-16T17:04:27;14.88;;;13.35;;
18893;SDS011;9579;49.488;8.226;2023-04-16T17:07:15;14.80;;;13.50;;
18893;SDS011;9579;49.488;8.226;2023-04-16T17:10:03;15.25;;;13.95;;
18893;SDS011;9579;49.488;8.226;2023-04-16T17:12:50;15.15;;;13.80;;
18893;SDS011;9579;49.488;8.226;2023-04-16T17:15:37;14.52;;;13.32;;
18893;SDS011;9579;49.488;8.226;2023-04-16T17:18:24;16.27;;;14.73;;
18893;SDS011;9579;49.488;8.226;2023-04-16T17:21:11;30.83;;;27.92;;
18893;SDS011;9579;49.488;8.226;2023-04-16T17:24:00;42.90;;;38.87;;
18893;SDS011;9579;49.488;8.226;2023-04-16T17:26:46;26.00;;;23.60;;
18893;SDS011;9579;49.488;8.226;2023-04-16T17:29:33;23.80;;;21.70;;
18893;SDS011;9579;49.488;8.226;2023-04-16T17:32:21;21.30;;;19.40;;
18893;SDS011;9579;49.488;8.226;2023-04-16T17:35:08;22.90;;;20.80;;
18893;SDS011;9579;49.488;8.226;2023-04-16T17:37:55;24.37;;;22.17;;
18893;SDS011;9579;49.488;8.226;2023-04-16T17:40:43;25.60;;;23.20;;
18893;SDS011;9579;49.488;8.226;2023-04-16T17:43:30;27.83;;;25.23;;
18893;SDS011;9579;49.488;8.226;2023-04-16T17:46:17;26.57;;;24.10;;
18893;SDS011;9579;49.488;8.226;2023-04-16T17:49:06;21.37;;;19.37;;
18893;SDS011;9579;49.488;8.226;2023-04-16T17:51:53;21.20;;;19.20;;
18893;SDS011;9579;49.488;8.226;2023-04-16T17:54:40;20.02;;;18.33;;
18893;SDS011;9579;49.488;8.226;2023-04-16T17:57:29;19.87;;;18.17;;
18893;SDS011;9579;49.488;8.226;2023-04-16T18:00:17;21.20;;;19.30;;
18893;SDS011;9579;49.488;8.226;2023-04-16T18:03:05;22.97;;;20.97;;
18893;SDS011;9579;49.488;8.226;2023-04-16T18:05:53;26.67;;;24.23;;
18893;SDS011;9579;49.488;8.226;2023-04-16T18:08:40;26.07;;;23.77;;
18893;SDS011;9579;49.488;8.226;2023-04-16T18:11:27;28.20;;;25.67;;
18893;SDS011;9579;49.488;8.226;2023-04-16T18:14:16;24.73;;;22.43;;
18893;SDS011;9579;49.488;8.226;2023-04-16T18:17:05;27.00;;;24.60;;
18893;SDS011;9579;49.488;8.226;2023-04-16T18:19:52;25.60;;;23.23;;
18893;SDS011;9579;49.488;8.226;2023-04-16T18:22:39;24.47;;;22.33;;
18893;SDS011;9579;49.488;8.226;2023-04-16T18:25:27;22.90;;;20.90;;
18893;SDS011;9579;49.488;8.226;2023-04-16T18:28:14;22.97;;;20.87;;
18893;SDS011;9579;49.488;8.226;2023-04-16T18:31:03;21.50;;;19.70;;
18893;SDS011;9579;49.488;8.226;2023-04-16T18:33:51;21.83;;;19.90;;
18893;SDS011;9579;49.488;8.226;2023-04-16T18:36:38;20.77;;;18.97;;
18893;SDS011;9579;49.488;8.226;2023-04-16T18:39:25;20.70;;;18.93;;
18893;SDS011;9579;49.488;8.226;2023-04-16T18:42:12;21.87;;;19.87;;
18893;SDS011;9579;49.488;8.226;2023-04-16T18:44:59;21.23;;;19.43;;
18893;SDS011;9579;49.488;8.226;2023-04-16T18:47:48;21.23;;;19.43;;
18893;SDS011;9579;49.488;8.226;2023-04-16T18:50:35;21.23;;;19.43;;
18893;SDS011;9579;49.488;8.226;2023-04-16T18:53:22;21.03;;;19.13;;
18893;SDS011;9579;49.488;8.226;2023-04-16T18:56:09;21.47;;;19.57;;
18893;SDS011;9579;49.488;8.226;2023-04-16T18:58:57;21.27;;;19.37;;
18893;SDS011;9579;49.488;8.226;2023-04-16T19:01:44;20.97;;;18.97;;
18893;SDS011;9579;49.488;8.226;2023-04-16T19:04:32;21.03;;;19.23;;
18893;SDS011;9579;49.488;8.226;2023-04-16T19:07:19;21.73;;;19.80;;
18893;SDS011;9579;49.488;8.226;2023-04-16T19:10:07;21.93;;;19.93;;
18893;SDS011;9579;49.488;8.226;2023-04-16T19:12:54;21.53;;;19.63;;
18893;SDS011;9579;49.488;8.226;2023-04-16T19:15:42;21.43;;;19.53;;
18893;SDS011;9579;49.488;8.226;2023-04-16T19:18:29;23.60;;;21.40;;
18893;SDS011;9579;49.488;8.226;2023-04-16T19:21:17;23.27;;;21.37;;
18893;SDS011;9579;49.488;8.226;2023-04-16T19:24:05;23.93;;;21.83;;
18893;SDS011;9579;49.488;8.226;2023-04-16T19:26:52;23.30;;;21.30;;
18893;SDS011;9579;49.488;8.226;2023-04-16T19:29:40;23.70;;;21.60;;
18893;SDS011;9579;49.488;8.226;2023-04-16T19:32:27;23.77;;;21.67;;
18893;SDS011;9579;49.488;8.226;2023-04-16T19:35:15;23.97;;;21.87;;
18893;SDS011;9579;49.488;8.226;2023-04-16T19:38:03;24.20;;;22.00;;
18893;SDS011;9579;49.488;8.226;2023-04-16T19:40:50;23.90;;;21.63;;
18893;SDS011;9579;49.488;8.226;2023-04-16T19:43:37;23.80;;;21.70;;
18893;SDS011;9579;49.488;8.226;2023-04-16T22:18:32;22.47;;;20.47;;
